createdAt,value
2019-01-04T00:00:30.081Z,13.17
2019-01-04T00:02:59.262Z,14.47
2019-01-04T00:05:28.196Z,11.37
2019-01-04T00:07:58.813Z,11.97
2019-01-04T00:10:28.714Z,10.97
2019-01-04T00:12:58.041Z,10.83
2019-01-04T00:15:26.977Z,8.70
2019-01-04T00:17:56.181Z,13.40
2019-01-04T00:20:25.093Z,12.30
2019-01-04T00:22:54.343Z,11.30
2019-01-04T00:25:23.402Z,8.80
2019-01-04T00:27:52.600Z,9.00
2019-01-04T00:30:22.686Z,9.23
2019-01-04T00:32:52.432Z,9.17
2019-01-04T00:35:21.614Z,12.17
2019-01-04T00:37:50.508Z,7.00
2019-01-04T00:40:28.649Z,7.17
2019-01-04T00:42:57.651Z,11.40
2019-01-04T00:45:27.978Z,8.70
2019-01-04T00:47:58.763Z,10.30
2019-01-04T00:50:27.663Z,11.67
2019-01-04T00:52:56.828Z,9.77
2019-01-04T00:55:51.994Z,8.63
2019-01-04T00:59:07.665Z,8.80
2019-01-04T01:01:59.462Z,11.67
2019-01-04T01:05:09.242Z,13.57
2019-01-04T01:08:21.791Z,9.30
2019-01-04T01:11:38.146Z,5.80
2019-01-04T01:14:46.059Z,6.60
2019-01-04T01:18:05.716Z,11.30
2019-01-04T01:21:32.104Z,6.77
2019-01-04T01:24:40.777Z,6.93
2019-01-04T01:27:42.286Z,4.93
2019-01-04T01:30:42.649Z,10.37
2019-01-04T01:33:33.971Z,9.07
2019-01-04T01:36:57.477Z,9.13
2019-01-04T01:39:59.077Z,7.63
2019-01-04T01:43:03.895Z,7.00
2019-01-04T01:46:01.334Z,8.40
2019-01-04T01:48:56.891Z,8.50
2019-01-04T01:51:51.461Z,6.13
2019-01-04T01:54:23.061Z,8.33
2019-01-04T01:56:52.247Z,3.13
2019-01-04T01:59:21.822Z,6.23
2019-01-04T02:01:51.728Z,6.43
2019-01-04T02:04:20.540Z,2.97
2019-01-04T02:06:49.492Z,2.60
2019-01-04T02:09:18.640Z,4.37
2019-01-04T02:11:47.714Z,4.70
2019-01-04T02:14:18.417Z,5.30
2019-01-04T02:16:47.772Z,2.57
2019-01-04T02:19:16.779Z,9.10
2019-01-04T02:21:45.911Z,4.70
2019-01-04T02:24:17.471Z,6.23
2019-01-04T02:26:46.461Z,4.70
2019-01-04T02:29:15.351Z,5.63
2019-01-04T02:32:03.411Z,6.83
2019-01-04T02:34:32.307Z,4.87
2019-01-04T02:37:03.021Z,5.40
2019-01-04T02:39:31.987Z,3.50
2019-01-04T02:42:01.133Z,4.47
2019-01-04T02:44:30.859Z,3.77
2019-01-04T02:47:00.265Z,7.63
2019-01-04T02:49:29.227Z,4.90
2019-01-04T02:51:58.047Z,6.70
2019-01-04T02:54:29.825Z,4.57
2019-01-04T02:56:58.993Z,3.47
2019-01-04T02:59:28.365Z,4.60
2019-01-04T03:01:59.887Z,7.13
2019-01-04T03:04:29.290Z,5.43
2019-01-04T03:06:58.163Z,8.00
2019-01-04T03:09:28.881Z,4.90
2019-01-04T03:11:57.703Z,6.30
2019-01-04T03:14:26.665Z,7.50
2019-01-04T03:16:55.662Z,9.67
2019-01-04T03:19:26.990Z,8.60
2019-01-04T03:21:56.055Z,4.97
2019-01-04T03:24:25.349Z,8.97
2019-01-04T03:26:54.454Z,8.53
2019-01-04T03:29:23.289Z,5.07
2019-01-04T03:31:53.447Z,4.07
2019-01-04T03:34:22.711Z,4.40
2019-01-04T03:36:51.682Z,4.47
2019-01-04T03:41:56.128Z,5.90
2019-01-04T03:44:25.041Z,5.17
2019-01-04T03:46:54.296Z,5.90
2019-01-04T03:49:23.141Z,3.13
2019-01-04T03:51:52.018Z,6.97
2019-01-04T03:54:21.277Z,4.73
2019-01-04T03:56:50.598Z,5.07
2019-01-04T03:59:19.762Z,4.43
2019-01-04T04:01:50.365Z,2.60
2019-01-04T04:04:19.253Z,3.87
2019-01-04T04:06:50.100Z,6.03
2019-01-04T04:09:18.978Z,3.77
2019-01-04T04:11:48.059Z,3.13
2019-01-04T04:14:20.967Z,4.13
2019-01-04T04:16:49.964Z,3.97
2019-01-04T04:19:18.852Z,4.03
2019-01-04T04:22:16.468Z,4.30
2019-01-04T04:24:45.977Z,5.67
2019-01-04T04:27:15.162Z,4.60
2019-01-04T04:29:46.678Z,3.17
2019-01-04T04:32:15.926Z,4.03
2019-01-04T04:34:47.077Z,4.83
2019-01-04T04:37:16.044Z,5.07
2019-01-04T04:39:44.919Z,3.60
2019-01-04T04:42:16.100Z,2.83
2019-01-04T04:44:45.248Z,2.90
2019-01-04T04:47:14.189Z,7.20
2019-01-04T04:49:43.099Z,4.93
2019-01-04T04:52:12.265Z,4.40
2019-01-04T04:54:41.563Z,5.03
2019-01-04T04:57:10.358Z,5.07
2019-01-04T04:59:39.789Z,5.60
2019-01-04T05:02:09.743Z,5.37
2019-01-04T05:04:38.587Z,3.37
2019-01-04T05:07:07.719Z,5.17
2019-01-04T05:09:36.700Z,4.97
2019-01-04T05:12:05.648Z,5.20
2019-01-04T05:14:34.907Z,4.63
2019-01-04T05:17:03.792Z,7.87
2019-01-04T05:22:09.537Z,4.13
2019-01-04T05:24:40.731Z,4.73
2019-01-04T05:27:09.568Z,6.63
2019-01-04T05:29:38.710Z,7.93
2019-01-04T05:32:07.626Z,6.27
2019-01-04T05:34:36.951Z,6.33
2019-01-04T05:37:05.882Z,11.30
2019-01-04T05:39:34.865Z,4.77
2019-01-04T05:42:03.916Z,4.50
2019-01-04T05:44:33.154Z,8.83
2019-01-04T05:47:02.099Z,4.73
2019-01-04T05:49:31.286Z,8.53
2019-01-04T05:52:00.205Z,7.30
2019-01-04T05:54:29.909Z,5.07
2019-01-04T05:57:02.153Z,7.43
2019-01-04T05:59:31.114Z,4.80
2019-01-04T06:02:03.341Z,5.97
2019-01-04T06:04:32.615Z,6.40
2019-01-04T06:07:01.849Z,11.17
2019-01-04T06:09:30.703Z,8.10
2019-01-04T06:11:59.680Z,9.03
2019-01-04T06:14:32.385Z,7.83
2019-01-04T06:17:02.485Z,4.87
2019-01-04T06:19:31.307Z,8.27
2019-01-04T06:22:00.290Z,4.27
2019-01-04T06:24:29.365Z,5.80
2019-01-04T06:26:58.323Z,5.73
2019-01-04T06:29:27.190Z,7.43
2019-01-04T06:31:56.192Z,7.73
2019-01-04T06:34:26.832Z,7.17
2019-01-04T06:36:55.828Z,10.33
2019-01-04T06:39:26.185Z,11.47
2019-01-04T06:41:55.489Z,9.53
2019-01-04T06:44:24.644Z,13.60
2019-01-04T06:47:15.326Z,16.77
2019-01-04T06:49:44.721Z,13.50
2019-01-04T06:52:14.898Z,12.60
2019-01-04T06:55:37.392Z,11.07
2019-01-04T06:58:10.474Z,12.90
2019-01-04T07:00:39.571Z,17.20
2019-01-04T07:03:08.878Z,11.37
2019-01-04T07:05:37.878Z,13.77
2019-01-04T07:08:07.626Z,15.13
2019-01-04T07:10:36.579Z,12.83
2019-01-04T07:13:05.497Z,14.13
2019-01-04T07:15:36.780Z,12.57
2019-01-04T07:18:06.509Z,11.73
2019-01-04T07:20:35.495Z,12.23
2019-01-04T07:23:04.470Z,11.73
2019-01-04T07:25:36.437Z,12.97
2019-01-04T07:28:06.132Z,14.03
2019-01-04T07:30:35.089Z,17.30
2019-01-04T07:33:04.142Z,16.77
2019-01-04T07:35:36.240Z,16.63
2019-01-04T07:38:05.295Z,19.70
2019-01-04T07:40:34.213Z,18.63
2019-01-04T07:43:04.522Z,14.60
2019-01-04T07:45:33.441Z,19.53
2019-01-04T07:48:02.262Z,18.83
2019-01-04T07:50:31.648Z,19.87
2019-01-04T07:53:28.583Z,19.40
2019-01-04T07:55:57.526Z,19.33
2019-01-04T07:58:26.842Z,15.60
2019-01-04T08:00:55.770Z,16.13
2019-01-04T08:03:26.630Z,17.97
2019-01-04T08:06:04.100Z,15.57
2019-01-04T08:08:33.333Z,16.13
2019-01-04T08:11:02.309Z,17.83
2019-01-04T08:13:31.621Z,16.37
2019-01-04T08:16:00.634Z,20.07
2019-01-04T08:18:31.141Z,14.43
2019-01-04T08:21:06.329Z,18.90
2019-01-04T08:23:35.298Z,13.07
2019-01-04T08:26:04.323Z,9.07
2019-01-04T08:28:33.201Z,9.73
2019-01-04T08:31:02.267Z,6.07
2019-01-04T08:33:31.287Z,7.13
2019-01-04T08:36:00.589Z,7.23
2019-01-04T08:38:30.017Z,5.27
2019-01-04T08:41:00.108Z,7.67
2019-01-04T08:43:29.320Z,4.83
2019-01-04T08:45:59.534Z,8.97
2019-01-04T08:48:28.913Z,9.17
2019-01-04T08:50:58.732Z,4.40
2019-01-04T08:53:56.021Z,6.70
2019-01-04T08:56:26.506Z,6.43
2019-01-04T08:58:56.023Z,7.27
2019-01-04T09:01:26.296Z,4.97
2019-01-04T09:03:55.179Z,6.00
2019-01-04T09:06:24.171Z,4.90
2019-01-04T09:08:55.019Z,9.17
2019-01-04T09:11:24.173Z,8.83
2019-01-04T09:13:54.710Z,9.33
2019-01-04T09:16:23.734Z,6.63
2019-01-04T09:18:52.640Z,7.33
2019-01-04T09:21:24.462Z,7.77
2019-01-04T09:23:54.011Z,9.17
2019-01-04T09:26:22.993Z,7.03
2019-01-04T09:28:53.710Z,7.43
2019-01-04T09:31:23.370Z,8.60
2019-01-04T09:33:52.298Z,9.23
2019-01-04T09:36:22.065Z,8.10
2019-01-04T09:38:52.247Z,7.83
2019-01-04T09:41:39.906Z,12.63
2019-01-04T09:44:08.940Z,8.23
2019-01-04T09:46:37.919Z,5.67
2019-01-04T09:49:10.195Z,5.53
2019-01-04T09:51:40.312Z,10.43
2019-01-04T09:54:09.613Z,7.07
2019-01-04T09:56:39.438Z,7.63
2019-01-04T09:59:08.858Z,5.67
2019-01-04T10:01:39.927Z,8.50
2019-01-04T10:04:08.931Z,8.50
2019-01-04T10:06:37.951Z,5.73
2019-01-04T10:09:08.087Z,7.73
2019-01-04T10:11:37.942Z,5.43
2019-01-04T10:14:07.555Z,9.90
2019-01-04T10:16:37.344Z,7.17
2019-01-04T10:19:06.494Z,6.03
2019-01-04T10:21:41.511Z,7.67
2019-01-04T10:24:12.900Z,5.87
2019-01-04T10:26:42.913Z,4.47
2019-01-04T10:29:12.742Z,9.93
2019-01-04T10:31:41.963Z,7.43
2019-01-04T10:34:12.187Z,7.03
2019-01-04T10:36:41.459Z,8.20
2019-01-04T10:39:11.480Z,6.93
2019-01-04T10:41:40.419Z,5.00
2019-01-04T10:44:09.340Z,4.93
2019-01-04T10:46:38.616Z,7.83
2019-01-04T10:49:08.019Z,8.20
2019-01-04T10:51:39.941Z,9.67
2019-01-04T10:54:08.862Z,6.87
2019-01-04T10:56:37.768Z,4.93
2019-01-04T10:59:06.774Z,6.87
2019-01-04T11:01:36.259Z,7.70
2019-01-04T11:04:09.409Z,5.87
2019-01-04T11:06:38.829Z,8.10
2019-01-04T11:09:10.724Z,5.27
2019-01-04T11:11:39.662Z,9.00
2019-01-04T11:14:10.306Z,7.23
2019-01-04T11:16:39.612Z,11.50
2019-01-04T11:19:08.588Z,5.30
2019-01-04T11:21:38.737Z,7.10
2019-01-04T11:24:36.160Z,5.60
2019-01-04T11:27:07.670Z,5.83
2019-01-04T11:30:38.909Z,5.80
2019-01-04T11:33:37.337Z,4.70
2019-01-04T11:36:41.331Z,7.93
2019-01-04T11:39:58.128Z,4.87
2019-01-04T11:43:05.861Z,7.60
2019-01-04T11:45:55.213Z,6.17
2019-01-04T11:49:07.503Z,8.00
2019-01-04T11:52:00.683Z,6.20
2019-01-04T11:54:35.944Z,6.87
2019-01-04T11:57:06.436Z,6.10
2019-01-04T11:59:35.746Z,8.70
2019-01-04T12:02:05.758Z,7.67
2019-01-04T12:04:34.787Z,6.80
2019-01-04T12:07:03.722Z,6.63
2019-01-04T12:09:34.460Z,8.23
2019-01-04T12:12:03.811Z,10.37
2019-01-04T12:14:32.743Z,6.43
2019-01-04T12:17:01.730Z,6.57
2019-01-04T12:19:31.940Z,6.40
2019-01-04T12:22:00.852Z,7.67
2019-01-04T12:24:29.864Z,9.43
2019-01-04T12:30:20.878Z,8.30
2019-01-04T12:32:49.833Z,12.33
2019-01-04T12:35:19.181Z,8.20
2019-01-04T12:37:51.435Z,10.77
2019-01-04T12:40:20.543Z,11.30
2019-01-04T12:42:50.630Z,9.93
2019-01-04T12:45:23.025Z,9.57
2019-01-04T12:47:52.075Z,8.10
2019-01-04T12:50:21.011Z,11.20
2019-01-04T12:52:51.288Z,12.63
2019-01-04T12:55:20.564Z,9.70
2019-01-04T12:57:49.761Z,14.20
2019-01-04T13:00:20.882Z,15.87
2019-01-04T13:02:49.907Z,11.30
2019-01-04T13:05:19.327Z,9.67
2019-01-04T13:07:48.389Z,10.63
2019-01-04T13:10:17.329Z,14.07
2019-01-04T13:12:49.503Z,18.10
2019-01-04T13:18:19.550Z,10.88
2019-01-04T13:20:48.804Z,11.87
2019-01-04T13:23:18.209Z,13.03
2019-01-04T13:25:47.499Z,15.90
2019-01-04T13:28:16.475Z,15.57
2019-01-04T13:30:45.788Z,17.57
2019-01-04T13:33:18.104Z,11.50
2019-01-04T13:35:49.426Z,12.60
2019-01-04T13:38:20.330Z,13.10
2019-01-04T13:40:52.394Z,9.57
2019-01-04T13:43:21.391Z,9.37
2019-01-04T13:45:51.193Z,12.57
2019-01-04T13:48:20.270Z,8.10
2019-01-04T13:50:49.290Z,10.07
2019-01-04T13:53:49.399Z,7.17
2019-01-04T13:56:18.989Z,6.70
2019-01-04T13:58:48.124Z,9.07
2019-01-04T14:01:17.473Z,9.10
2019-01-04T14:03:46.513Z,8.13
2019-01-04T14:06:15.560Z,8.77
2019-01-04T14:08:45.142Z,9.03
2019-01-04T14:11:15.789Z,10.67
2019-01-04T14:13:45.102Z,11.23
2019-01-04T14:16:14.446Z,8.30
2019-01-04T14:18:44.213Z,9.67
2019-01-04T14:21:13.731Z,8.70
2019-01-04T14:23:43.501Z,10.73
2019-01-04T14:29:15.518Z,8.10
2019-01-04T14:31:46.451Z,12.07
2019-01-04T14:34:16.730Z,9.20
2019-01-04T14:36:45.745Z,10.23
2019-01-04T14:39:14.998Z,11.27
2019-01-04T14:41:44.109Z,9.03
2019-01-04T14:44:13.710Z,8.20
2019-01-04T14:46:43.606Z,6.93
2019-01-04T14:49:12.886Z,10.10
2019-01-04T14:51:42.040Z,8.53
2019-01-04T14:54:10.975Z,6.10
2019-01-04T14:56:40.388Z,9.00
2019-01-04T14:59:11.223Z,8.80
2019-01-04T15:01:40.186Z,8.57
2019-01-04T15:04:09.264Z,9.77
2019-01-04T15:06:38.224Z,9.13
2019-01-04T15:09:09.955Z,12.40
2019-01-04T15:11:38.975Z,9.07
2019-01-04T15:14:07.977Z,9.83
2019-01-04T15:16:37.647Z,10.67
2019-01-04T15:19:06.899Z,8.77
2019-01-04T15:26:00.020Z,8.27
2019-01-04T15:28:29.775Z,7.07
2019-01-04T15:31:02.128Z,8.40
2019-01-04T15:33:31.012Z,8.23
2019-01-04T15:36:00.676Z,5.20
2019-01-04T15:38:36.345Z,9.67
2019-01-04T15:41:06.728Z,7.33
2019-01-04T15:43:36.401Z,6.47
2019-01-04T15:46:06.112Z,8.27
2019-01-04T15:48:35.138Z,9.90
2019-01-04T15:51:04.422Z,10.57
2019-01-04T15:53:33.368Z,10.83
2019-01-04T15:56:04.856Z,7.87
2019-01-04T15:58:33.932Z,9.27
2019-01-04T16:01:02.935Z,10.90
2019-01-04T16:06:07.002Z,9.90
2019-01-04T16:08:39.520Z,10.93
2019-01-04T16:11:09.170Z,12.33
2019-01-04T16:13:38.173Z,9.90
2019-01-04T16:16:07.233Z,10.47
2019-01-04T16:18:39.219Z,10.43
2019-01-04T16:21:08.346Z,10.90
2019-01-04T16:23:40.521Z,15.77
2019-01-04T16:26:09.439Z,10.10
2019-01-04T16:28:41.688Z,8.73
2019-01-04T16:31:11.016Z,7.60
2019-01-04T16:33:40.130Z,10.97
2019-01-04T16:36:09.148Z,10.27
2019-01-04T16:38:38.524Z,13.30
2019-01-04T16:41:07.939Z,15.60
2019-01-04T16:43:37.543Z,10.40
2019-01-04T16:46:10.148Z,10.77
2019-01-04T16:48:39.303Z,9.83
2019-01-04T16:51:10.494Z,10.27
2019-01-04T16:53:41.146Z,11.00
2019-01-04T16:56:10.221Z,13.03
2019-01-04T16:58:39.682Z,13.07
2019-01-04T17:01:10.103Z,11.53
2019-01-04T17:03:40.154Z,12.63
2019-01-04T17:06:09.272Z,12.57
2019-01-04T17:08:38.387Z,11.93
2019-01-04T17:11:07.789Z,13.47
2019-01-04T17:13:37.428Z,13.70
2019-01-04T17:16:07.119Z,9.00
2019-01-04T17:18:36.443Z,14.93
2019-01-04T17:21:06.257Z,13.00
2019-01-04T17:23:36.349Z,12.13
2019-01-04T17:26:05.973Z,12.97
2019-01-04T17:28:36.699Z,13.10
2019-01-04T17:31:06.105Z,11.57
2019-01-04T17:33:35.523Z,12.77
2019-01-04T17:36:05.236Z,14.50
2019-01-04T17:38:34.815Z,17.20
2019-01-04T17:41:04.785Z,15.07
2019-01-04T17:43:33.930Z,11.43
2019-01-04T17:46:03.205Z,12.73
2019-01-04T17:48:33.454Z,11.97
2019-01-04T17:51:02.937Z,11.70
2019-01-04T17:53:32.708Z,13.57
2019-01-04T17:56:02.993Z,22.27
2019-01-04T17:58:32.156Z,12.73
2019-01-04T18:01:02.070Z,12.23
2019-01-04T18:03:31.319Z,16.60
2019-01-04T18:06:01.187Z,21.80
2019-01-04T18:08:30.250Z,18.03
2019-01-04T18:10:59.640Z,16.27
2019-01-04T18:13:29.433Z,14.33
2019-01-04T18:15:58.510Z,14.03
2019-01-04T18:18:27.615Z,13.87
2019-01-04T18:20:57.353Z,17.23
2019-01-04T18:23:26.723Z,16.23
2019-01-04T18:25:55.959Z,18.93
2019-01-04T18:28:24.960Z,15.07
2019-01-04T18:30:53.928Z,16.13
2019-01-04T18:33:23.211Z,13.57
2019-01-04T18:35:52.300Z,11.60
2019-01-04T18:38:23.123Z,13.80
2019-01-04T18:40:52.976Z,10.77
2019-01-04T18:43:23.783Z,12.43
2019-01-04T18:45:53.894Z,12.63
2019-01-04T18:48:26.445Z,13.80
2019-01-04T18:50:56.170Z,18.07
2019-01-04T18:53:26.105Z,15.43
2019-01-04T18:55:55.218Z,13.13
2019-01-04T18:58:24.260Z,10.57
2019-01-04T19:00:53.248Z,12.13
2019-01-04T19:03:22.347Z,13.13
2019-01-04T19:05:51.512Z,15.10
2019-01-04T19:08:21.008Z,10.17
2019-01-04T19:10:50.016Z,8.23
2019-01-04T19:13:20.007Z,10.83
2019-01-04T19:15:49.015Z,10.07
2019-01-04T19:18:20.627Z,10.90
2019-01-04T19:20:49.642Z,11.83
2019-01-04T19:23:20.531Z,8.60
2019-01-04T19:25:49.963Z,10.90
2019-01-04T19:28:19.050Z,6.17
2019-01-04T19:30:48.463Z,6.13
2019-01-04T19:33:20.968Z,9.57
2019-01-04T19:35:52.147Z,8.93
2019-01-04T19:38:24.690Z,8.00
2019-01-04T19:40:54.706Z,9.47
2019-01-04T19:43:24.477Z,8.23
2019-01-04T19:45:55.341Z,10.13
2019-01-04T19:48:24.457Z,6.97
2019-01-04T19:50:54.388Z,13.03
2019-01-04T19:53:23.440Z,7.17
2019-01-04T19:55:52.465Z,6.73
2019-01-04T19:58:21.893Z,8.23
2019-01-04T20:00:51.093Z,9.63
2019-01-04T20:03:20.493Z,9.63
2019-01-04T20:06:40.715Z,7.30
2019-01-04T20:10:13.884Z,10.60
2019-01-04T20:14:00.372Z,10.63
2019-01-04T20:16:59.853Z,8.93
2019-01-04T20:19:47.011Z,7.43
2019-01-04T20:22:34.075Z,10.37
2019-01-04T20:25:36.448Z,10.10
2019-01-04T20:28:30.993Z,9.20
2019-01-04T20:31:18.978Z,10.57
2019-01-04T20:34:22.710Z,9.23
2019-01-04T20:37:12.336Z,9.53
2019-01-04T20:40:00.503Z,11.07
2019-01-04T20:42:55.119Z,8.40
2019-01-04T20:45:53.132Z,6.83
2019-01-04T20:48:40.592Z,5.43
2019-01-04T20:51:27.640Z,8.47
2019-01-04T20:54:17.000Z,8.33
2019-01-04T20:57:23.206Z,5.13
2019-01-04T21:00:19.996Z,8.93
2019-01-04T21:03:08.277Z,7.07
2019-01-04T21:05:59.781Z,9.33
2019-01-04T21:08:47.080Z,9.87
2019-01-04T21:11:36.904Z,4.83
2019-01-04T21:14:26.622Z,7.00
2019-01-04T21:17:13.719Z,8.33
2019-01-04T21:19:58.539Z,7.87
2019-01-04T21:22:48.006Z,6.87
2019-01-04T21:25:47.194Z,10.65
2019-01-04T21:28:34.979Z,5.90
2019-01-04T21:31:25.925Z,5.80
2019-01-04T21:34:21.088Z,7.30
2019-01-04T21:37:18.083Z,7.90
2019-01-04T21:40:04.581Z,5.83
2019-01-04T21:42:57.994Z,8.00
2019-01-04T21:45:58.666Z,5.53
2019-01-04T21:49:05.190Z,9.63
2019-01-04T21:52:00.355Z,4.83
2019-01-04T21:55:04.086Z,5.40
2019-01-04T21:57:58.805Z,9.17
2019-01-04T22:00:59.690Z,5.17
2019-01-04T22:03:51.598Z,4.60
2019-01-04T22:06:40.501Z,4.70
2019-01-04T22:09:29.880Z,5.07
2019-01-04T22:12:18.543Z,6.23
2019-01-04T22:15:21.719Z,4.37
2019-01-04T22:18:21.801Z,5.93
2019-01-04T22:24:11.598Z,5.30
2019-01-04T22:27:01.284Z,8.30
2019-01-04T22:29:42.690Z,9.37
2019-01-04T22:32:42.946Z,5.97
2019-01-04T22:35:25.701Z,7.83
2019-01-04T22:38:15.358Z,5.30
2019-01-04T22:41:21.503Z,12.20
2019-01-04T22:44:21.541Z,3.83
2019-01-04T22:47:08.191Z,7.87
2019-01-04T22:49:59.384Z,7.10
2019-01-04T22:52:46.196Z,9.73
2019-01-04T22:55:32.514Z,6.93
2019-01-04T22:58:20.144Z,8.27
2019-01-04T23:01:03.267Z,8.97
2019-01-04T23:04:09.618Z,6.43
2019-01-04T23:07:06.550Z,11.07
2019-01-04T23:09:54.609Z,7.10
2019-01-04T23:12:54.838Z,10.17
2019-01-04T23:15:49.433Z,8.57
2019-01-04T23:18:46.836Z,10.57
2019-01-04T23:22:15.703Z,9.20
2019-01-04T23:25:02.983Z,7.73
2019-01-04T23:28:14.984Z,11.63
2019-01-04T23:31:05.915Z,9.10
2019-01-04T23:33:59.966Z,7.93
2019-01-04T23:36:47.280Z,8.07
2019-01-04T23:39:39.221Z,7.53
2019-01-04T23:42:26.049Z,10.13
2019-01-04T23:45:33.074Z,11.23
2019-01-04T23:48:21.116Z,8.53
2019-01-04T23:51:21.494Z,7.60
2019-01-04T23:54:09.999Z,9.43
2019-01-04T23:56:57.248Z,11.90
2019-01-04T23:59:51.244Z,7.33
